Time;durP1;ratioP1;P1;durP2;ratioP2;P2;SDS_P1;SDS_P2;PMS_P1;PMS_P2;Temp;Humidity;BMP_temperature;BMP_pressure;BME280_temperature;BME280_humidity;BME280_pressure;Samples;Min_cycle;Max_cycle;Signal;HPM_P1;HPM_P2
2022/03/07 00:00:37;;;;;;;7.10;3.95;;;-0.10;99.90;;;;;;5094308;28;20033;-61
2022/03/07 00:03:03;;;;;;;9.50;4.75;;;-0.20;99.90;;;;;;5106630;28;20044;-61
2022/03/07 00:05:29;;;;;;;10.43;4.10;;;-0.30;99.90;;;;;;5101558;28;20059;-61
2022/03/07 00:07:55;;;;;;;12.63;4.30;;;-0.40;99.90;;;;;;5106092;28;20039;-62
2022/03/07 00:10:21;;;;;;;11.38;4.93;;;-0.40;99.90;;;;;;5104762;28;20044;-63
2022/03/07 00:12:46;;;;;;;9.02;3.63;;;-0.50;99.90;;;;;;5104325;28;20040;-62
2022/03/07 00:15:12;;;;;;;6.15;4.38;;;-0.60;99.90;;;;;;5101950;28;20103;-62
2022/03/07 00:17:38;;;;;;;12.52;4.35;;;-0.60;99.90;;;;;;5103000;28;20044;-62
2022/03/07 00:20:05;;;;;;;15.10;5.43;;;-0.50;99.90;;;;;;5105676;28;20036;-61
2022/03/07 00:22:30;;;;;;;13.88;5.75;;;-0.50;99.90;;;;;;5105780;28;20059;-62
2022/03/07 00:24:56;;;;;;;13.32;5.18;;;-0.30;99.90;;;;;;5100375;28;20107;-62
2022/03/07 00:27:22;;;;;;;7.03;4.32;;;-0.20;99.90;;;;;;5099639;28;20520;-61
2022/03/07 00:29:47;;;;;;;13.15;4.68;;;-0.20;99.90;;;;;;5103662;28;20051;-61
2022/03/07 00:32:13;;;;;;;5.97;4.13;;;-0.30;99.90;;;;;;5100391;28;20036;-61
2022/03/07 00:34:39;;;;;;;9.15;4.25;;;-0.30;99.90;;;;;;5102200;28;20043;-62
2022/03/07 00:37:05;;;;;;;8.55;4.43;;;-0.40;99.90;;;;;;5101430;28;20048;-61
2022/03/07 00:39:31;;;;;;;13.73;4.72;;;-0.50;99.90;;;;;;5104044;28;20051;-61
2022/03/07 00:41:57;;;;;;;10.50;3.95;;;-0.60;99.90;;;;;;5098332;28;20044;-61
2022/03/07 00:44:22;;;;;;;10.98;4.32;;;-0.70;99.90;;;;;;5101686;28;20036;-60
2022/03/07 00:46:48;;;;;;;7.50;3.80;;;-0.70;99.90;;;;;;5104807;28;20028;-61
2022/03/07 00:49:14;;;;;;;7.35;4.88;;;-0.80;99.90;;;;;;5107587;28;20040;-61
2022/03/07 00:51:39;;;;;;;5.80;4.50;;;-0.90;99.90;;;;;;5116619;28;20111;-61
2022/03/07 00:54:05;;;;;;;11.70;5.68;;;-0.80;99.90;;;;;;5123484;28;20044;-61
2022/03/07 00:56:31;;;;;;;11.23;4.50;;;-0.60;99.90;;;;;;5117091;28;20071;-61
2022/03/07 00:58:56;;;;;;;12.50;4.80;;;-0.50;99.90;;;;;;5107606;28;20044;-62
2022/03/07 01:01:22;;;;;;;12.40;4.70;;;-0.50;99.90;;;;;;5106246;28;20051;-61
2022/03/07 01:03:48;;;;;;;8.82;4.50;;;-0.50;99.90;;;;;;5106060;28;20139;-61
2022/03/07 01:06:14;;;;;;;10.90;4.25;;;-0.50;99.90;;;;;;5105530;28;20062;-61
2022/03/07 01:08:39;;;;;;;6.35;3.78;;;-0.50;99.90;;;;;;5106066;28;20048;-61
2022/03/07 01:11:06;;;;;;;12.60;4.78;;;-0.60;99.90;;;;;;5106143;28;20044;-61
2022/03/07 01:13:31;;;;;;;13.88;4.43;;;-0.70;99.90;;;;;;5089955;28;20048;-62
2022/03/07 01:15:57;;;;;;;10.25;4.93;;;-0.70;99.90;;;;;;5101288;28;20047;-62
2022/03/07 01:18:23;;;;;;;12.60;3.85;;;-0.90;99.90;;;;;;5105815;28;20083;-61
2022/03/07 01:20:49;;;;;;;18.27;5.55;;;-0.90;99.90;;;;;;5105366;28;20043;-61
2022/03/07 01:23:15;;;;;;;8.77;4.50;;;-0.90;99.90;;;;;;5103745;28;20043;-62
2022/03/07 01:25:41;;;;;;;8.70;5.30;;;-0.90;99.90;;;;;;5105882;28;20040;-61
2022/03/07 01:28:06;;;;;;;8.80;5.10;;;-1.00;99.90;;;;;;5105401;28;20040;-62
2022/03/07 01:30:32;;;;;;;10.82;5.03;;;-1.10;99.90;;;;;;5105680;28;20116;-61
2022/03/07 01:32:58;;;;;;;6.20;5.18;;;-1.10;99.90;;;;;;5105550;28;20407;-61
2022/03/07 01:35:24;;;;;;;9.38;5.35;;;-1.20;99.90;;;;;;5096132;28;20071;-60
2022/03/07 01:37:49;;;;;;;19.23;6.43;;;-1.20;99.90;;;;;;5084931;28;20052;-60
2022/03/07 01:40:15;;;;;;;11.82;5.63;;;-1.10;99.90;;;;;;5100441;28;20059;-60
2022/03/07 01:42:41;;;;;;;10.68;6.05;;;-1.10;99.90;;;;;;5084873;28;20048;-61
2022/03/07 01:45:12;;;;;;;7.97;4.95;;;-1.20;99.90;;;;;;5084817;28;20040;-61
2022/03/07 01:47:38;;;;;;;13.00;6.13;;;-1.20;99.90;;;;;;5084980;28;20049;-61
2022/03/07 01:50:06;;;;;;;13.55;6.05;;;-1.30;99.90;;;;;;5093351;28;20036;-61
2022/03/07 01:52:36;;;;;;;15.80;6.70;;;-1.30;99.90;;;;;;5105042;28;20433;-61
2022/03/07 01:55:02;;;;;;;9.90;6.15;;;-1.30;99.90;;;;;;5105198;28;20059;-61
2022/03/07 01:57:30;;;;;;;14.88;6.47;;;-1.30;99.90;;;;;;5104986;28;20048;-62
2022/03/07 01:59:56;;;;;;;10.63;6.30;;;-1.30;99.90;;;;;;5102746;28;20048;-61
2022/03/07 02:02:24;;;;;;;18.25;7.43;;;-1.30;99.90;;;;;;5105110;28;20040;-61
2022/03/07 02:04:50;;;;;;;;;;;-1.20;99.90;;;;;;5096658;28;20056;-60
2022/03/07 02:07:16;;;;;;;14.10;6.25;;;-1.20;99.90;;;;;;5084551;28;20015;-60
2022/03/07 02:09:42;;;;;;;17.35;6.82;;;-1.20;99.90;;;;;;5084541;28;20102;-61
2022/03/07 02:12:08;;;;;;;17.67;7.05;;;-1.20;99.90;;;;;;5084460;28;20113;-61
2022/03/07 02:14:35;;;;;;;10.90;7.03;;;-1.30;99.90;;;;;;5084318;28;20499;-60
2022/03/07 02:17:00;;;;;;;8.57;6.07;;;-1.30;99.90;;;;;;5084360;28;20055;-60
2022/03/07 02:19:26;;;;;;;21.33;8.13;;;-1.40;99.90;;;;;;5084608;28;20072;-61
2022/03/07 02:22:00;;;;;;;11.10;6.65;;;-1.30;99.90;;;;;;5099264;28;20036;-61
2022/03/07 02:24:28;;;;;;;13.40;7.20;;;-1.20;99.90;;;;;;5084332;28;20597;-60
2022/03/07 02:27:05;;;;;;;26.35;7.63;;;-1.10;99.90;;;;;;5084330;28;20454;-61
2022/03/07 02:29:32;;;;;;;15.95;7.28;;;-1.10;99.90;;;;;;5084037;28;20036;-60
2022/03/07 02:31:58;;;;;;;13.40;6.57;;;-1.20;99.90;;;;;;5084414;28;20043;-60
2022/03/07 02:34:24;;;;;;;15.30;8.15;;;-1.10;99.90;;;;;;5084208;28;20108;-61
2022/03/07 02:36:50;;;;;;;12.13;6.95;;;-1.20;99.90;;;;;;5099477;28;20092;-60
2022/03/07 02:39:16;;;;;;;20.83;7.88;;;-1.30;99.90;;;;;;5104315;28;20127;-60
2022/03/07 02:41:42;;;;;;;12.48;6.78;;;-1.30;99.90;;;;;;5103948;28;20056;-60
2022/03/07 02:44:08;;;;;;;16.60;6.80;;;-1.20;99.90;;;;;;5104088;28;20040;-61
2022/03/07 02:46:35;;;;;;;11.27;6.45;;;-1.20;99.90;;;;;;5104543;28;20036;-60
2022/03/07 02:49:01;;;;;;;13.52;6.47;;;-1.30;99.90;;;;;;5104485;28;20039;-61
2022/03/07 02:51:27;;;;;;;11.68;7.35;;;-1.20;99.90;;;;;;5100457;28;20064;-61
2022/03/07 02:53:53;;;;;;;18.35;7.07;;;-1.20;99.90;;;;;;5087333;28;20101;-60
2022/03/07 02:56:18;;;;;;;11.30;7.72;;;-1.20;99.90;;;;;;5083934;28;20036;-61
2022/03/07 02:58:44;;;;;;;23.05;7.82;;;-1.20;99.90;;;;;;5083869;28;20143;-60
2022/03/07 03:01:10;;;;;;;11.45;7.78;;;-1.20;99.90;;;;;;5083969;28;20044;-60
2022/03/07 03:03:36;;;;;;;13.98;7.68;;;-1.30;99.90;;;;;;5083953;28;20052;-61
2022/03/07 03:06:03;;;;;;;22.95;8.80;;;-1.30;99.90;;;;;;5099464;28;20045;-60
2022/03/07 03:08:28;;;;;;;16.65;7.93;;;-1.30;99.90;;;;;;5082714;28;20068;-60
2022/03/07 03:10:57;;;;;;;13.77;7.22;;;-1.30;99.90;;;;;;5086297;28;20095;-61
2022/03/07 03:13:23;;;;;;;20.05;8.63;;;-1.30;99.90;;;;;;5087868;28;20032;-60
2022/03/07 03:15:50;;;;;;;15.95;8.13;;;-1.40;99.90;;;;;;5086629;28;20128;-61
2022/03/07 03:18:16;;;;;;;14.63;7.63;;;-1.40;99.90;;;;;;5087958;28;20087;-60
2022/03/07 03:20:44;;;;;;;12.85;7.93;;;-1.50;99.90;;;;;;5096396;28;20369;-60
2022/03/07 03:23:10;;;;;;;16.35;7.70;;;-1.40;99.90;;;;;;5107698;28;20326;-61
2022/03/07 03:25:36;;;;;;;11.45;7.00;;;-1.40;99.90;;;;;;5108250;28;20063;-60
2022/03/07 03:28:02;;;;;;;12.23;7.85;;;-1.50;99.90;;;;;;5107981;28;20047;-60
2022/03/07 03:30:28;;;;;;;14.50;7.85;;;-1.60;99.90;;;;;;5107755;28;20044;-60
2022/03/07 03:32:53;;;;;;;15.77;7.13;;;-1.50;99.90;;;;;;5108248;28;20059;-60
2022/03/07 03:35:19;;;;;;;14.32;8.00;;;-1.50;99.90;;;;;;5101848;28;20435;-60
2022/03/07 03:37:45;;;;;;;16.40;7.80;;;-1.40;99.90;;;;;;5086998;28;20044;-60
2022/03/07 03:40:12;;;;;;;12.75;8.40;;;-1.50;99.90;;;;;;5087341;28;20442;-60
2022/03/07 03:42:39;;;;;;;14.48;8.95;;;-1.50;99.90;;;;;;5087410;28;20128;-61
2022/03/07 03:45:08;;;;;;;17.30;8.43;;;-1.50;99.90;;;;;;5106362;28;20036;-61
2022/03/07 03:47:38;;;;;;;14.15;7.47;;;-1.30;99.90;;;;;;5107879;28;20067;-61
2022/03/07 03:50:05;;;;;;;13.65;8.50;;;-1.30;99.90;;;;;;5099890;28;20074;-61
2022/03/07 03:52:32;;;;;;;18.33;8.35;;;-1.30;99.90;;;;;;5086432;28;20040;-61
2022/03/07 03:54:57;;;;;;;19.23;7.47;;;-1.30;99.90;;;;;;5087300;28;20045;-61
2022/03/07 03:57:23;;;;;;;14.80;7.88;;;-1.40;99.90;;;;;;5087065;28;20102;-61
2022/03/07 03:59:50;;;;;;;25.23;8.63;;;-1.40;99.90;;;;;;5086832;28;20044;-61
2022/03/07 04:02:16;;;;;;;19.35;9.98;;;-1.30;99.90;;;;;;5087469;28;20217;-61
2022/03/07 04:04:41;;;;;;;18.48;9.90;;;-1.20;99.90;;;;;;5087993;28;20194;-61
2022/03/07 04:07:07;;;;;;;16.20;9.45;;;-1.20;99.90;;;;;;5107027;28;20500;-61
2022/03/07 04:09:33;;;;;;;21.70;9.15;;;-1.20;99.90;;;;;;5105929;28;20480;-61
2022/03/07 04:11:59;;;;;;;16.40;7.80;;;-1.30;99.90;;;;;;5105811;28;20044;-61
2022/03/07 04:14:25;;;;;;;16.13;7.65;;;-1.40;99.90;;;;;;5107072;28;20122;-62
2022/03/07 04:16:50;;;;;;;14.30;7.68;;;-1.60;99.90;;;;;;5107275;28;20040;-61
2022/03/07 04:19:16;;;;;;;15.05;6.97;;;-1.70;99.90;;;;;;5106675;28;20047;-61
2022/03/07 04:21:42;;;;;;;13.52;6.88;;;-1.80;99.90;;;;;;5085219;28;20072;-61
2022/03/07 04:24:09;;;;;;;16.92;8.63;;;-1.90;99.90;;;;;;5086823;28;20048;-61
2022/03/07 04:26:36;;;;;;;17.38;8.35;;;-1.90;99.90;;;;;;5086753;28;20040;-61
2022/03/07 04:29:07;;;;;;;17.92;8.52;;;-1.90;99.90;;;;;;5086717;28;20067;-61
2022/03/07 04:31:37;;;;;;;13.82;8.68;;;-1.90;99.90;;;;;;5086737;28;20084;-61
2022/03/07 04:34:03;;;;;;;18.55;9.65;;;-2.00;99.90;;;;;;5095575;28;20050;-61
2022/03/07 04:36:29;;;;;;;26.17;10.07;;;-2.00;99.90;;;;;;5086017;28;20060;-61
2022/03/07 04:38:55;;;;;;;20.13;10.00;;;-1.90;99.90;;;;;;5086243;28;20087;-61
2022/03/07 04:41:21;;;;;;;17.77;10.18;;;-2.00;99.90;;;;;;5086502;28;20036;-61
2022/03/07 04:43:46;;;;;;;21.73;10.15;;;-2.10;99.90;;;;;;5086100;28;20549;-62
2022/03/07 04:46:12;;;;;;;18.98;9.98;;;-2.20;99.90;;;;;;5086278;28;20071;-61
2022/03/07 04:48:38;;;;;;;19.45;9.80;;;-2.30;99.90;;;;;;5086178;28;20053;-62
2022/03/07 04:51:04;;;;;;;16.13;9.80;;;-2.30;99.90;;;;;;5096922;28;20047;-61
2022/03/07 04:53:30;;;;;;;24.30;9.68;;;-2.40;99.90;;;;;;5105165;28;20048;-62
2022/03/07 04:55:57;;;;;;;19.63;11.25;;;-2.40;99.90;;;;;;5106585;28;20050;-62
2022/03/07 04:58:23;;;;;;;22.75;11.68;;;-2.30;99.90;;;;;;5106183;28;20522;-63
2022/03/07 05:00:48;;;;;;;22.85;10.77;;;-2.10;99.90;;;;;;5106205;28;20032;-61
2022/03/07 05:03:14;;;;;;;21.55;12.48;;;-2.00;99.90;;;;;;5106410;28;20046;-61
2022/03/07 05:05:40;;;;;;;22.13;11.85;;;-2.00;99.90;;;;;;5099326;28;20112;-60
2022/03/07 05:08:06;;;;;;;28.80;12.20;;;-2.00;99.90;;;;;;5085317;28;20028;-61
2022/03/07 05:10:32;;;;;;;18.60;11.55;;;-2.00;99.90;;;;;;5086138;28;20047;-61
2022/03/07 05:12:57;;;;;;;20.25;10.85;;;-2.00;99.90;;;;;;5085718;28;20523;-61
2022/03/07 05:15:23;;;;;;;23.25;10.40;;;-2.10;99.90;;;;;;5085304;28;20072;-61
2022/03/07 05:17:53;;;;;;;27.63;12.25;;;-2.20;99.90;;;;;;5085183;28;20055;-61
2022/03/07 05:20:20;;;;;;;17.65;10.80;;;-2.30;99.90;;;;;;5086318;28;20033;-60
2022/03/07 05:22:46;;;;;;;22.05;12.63;;;-2.30;99.90;;;;;;5084723;28;20070;-62
2022/03/07 05:25:14;;;;;;;42.80;12.73;;;-2.30;99.90;;;;;;5087990;28;20036;-62
2022/03/07 05:27:40;;;;;;;30.02;15.30;;;-2.30;99.90;;;;;;5076324;28;20040;-62
2022/03/07 05:30:08;;;;;;;30.05;18.30;;;-2.20;99.90;;;;;;5085167;28;20077;-61
2022/03/07 05:32:34;;;;;;;30.90;19.52;;;-2.10;99.90;;;;;;5091721;28;20032;-60
2022/03/07 05:35:00;;;;;;;29.10;17.23;;;-2.10;99.90;;;;;;5103158;28;20044;-61
2022/03/07 05:37:26;;;;;;;26.38;15.43;;;-2.20;99.90;;;;;;5096806;28;20056;-61
2022/03/07 05:39:52;;;;;;;26.15;14.40;;;-2.20;99.90;;;;;;5086877;28;20048;-62
2022/03/07 05:42:18;;;;;;;27.95;13.73;;;-2.20;99.90;;;;;;5103874;28;20055;-62
2022/03/07 05:44:44;;;;;;;30.77;14.32;;;-2.10;99.90;;;;;;5094649;28;20507;-62
2022/03/07 05:47:10;;;;;;;31.98;13.93;;;-2.20;99.90;;;;;;5093520;28;20046;-62
2022/03/07 05:49:35;;;;;;;22.25;13.25;;;-2.20;99.90;;;;;;5094569;28;20047;-61
2022/03/07 05:52:01;;;;;;;23.27;12.68;;;-2.30;99.90;;;;;;5099124;28;20036;-61
2022/03/07 05:54:27;;;;;;;20.20;12.80;;;-2.20;99.90;;;;;;5097994;28;20046;-61
2022/03/07 05:56:53;;;;;;;26.80;14.10;;;-2.20;99.90;;;;;;5088564;28;20119;-61
2022/03/07 05:59:19;;;;;;;25.70;14.20;;;-2.30;99.90;;;;;;5082934;28;20056;-61
2022/03/07 06:01:44;;;;;;;32.00;14.77;;;-2.30;99.90;;;;;;5085900;28;20086;-60
2022/03/07 06:04:10;;;;;;;32.30;14.48;;;-2.30;99.90;;;;;;5089136;28;20099;-61
2022/03/07 06:06:36;;;;;;;27.33;13.18;;;-2.30;99.90;;;;;;5084116;28;20052;-62
2022/03/07 06:09:02;;;;;;;27.13;13.95;;;-2.30;99.90;;;;;;5084868;28;20040;-61
2022/03/07 06:11:27;;;;;;;30.15;14.55;;;-2.30;99.90;;;;;;5084406;28;20044;-61
2022/03/07 06:13:53;;;;;;;29.15;12.98;;;-2.30;99.90;;;;;;5088832;28;20097;-61
2022/03/07 06:16:19;;;;;;;26.48;14.02;;;-2.30;99.90;;;;;;5104587;28;20082;-61
2022/03/07 06:18:44;;;;;;;34.47;14.55;;;-2.20;99.90;;;;;;5100244;28;20044;-61
2022/03/07 06:21:10;;;;;;;29.00;14.80;;;-2.10;99.90;;;;;;5083973;28;20151;-62
2022/03/07 06:23:36;;;;;;;25.33;14.15;;;-2.10;99.90;;;;;;5084766;28;20047;-61
2022/03/07 06:26:05;;;;;;;23.95;13.80;;;-2.00;99.90;;;;;;5084308;28;20463;-61
2022/03/07 06:28:31;;;;;;;27.80;14.35;;;-2.00;99.90;;;;;;5083941;28;20104;-61
2022/03/07 06:30:57;;;;;;;29.63;14.35;;;-1.90;99.90;;;;;;5084116;28;20048;-61
2022/03/07 06:33:22;;;;;;;29.33;15.57;;;-1.90;99.90;;;;;;5083053;28;20125;-61
2022/03/07 06:35:48;;;;;;;32.25;15.88;;;-1.70;99.90;;;;;;5089625;28;20075;-61
2022/03/07 06:38:14;;;;;;;24.30;14.63;;;-1.70;99.90;;;;;;5102169;28;20044;-62
2022/03/07 06:40:40;;;;;;;37.17;16.52;;;-1.70;99.90;;;;;;5104470;28;20050;-61
2022/03/07 06:43:06;;;;;;;30.85;20.23;;;-1.70;99.90;;;;;;5103182;28;20068;-61
2022/03/07 06:45:32;;;;;;;32.17;16.38;;;-1.70;99.90;;;;;;5103719;28;20047;-61
2022/03/07 06:47:59;;;;;;;31.50;16.42;;;-1.70;99.90;;;;;;5104189;28;20051;-62
2022/03/07 06:50:25;;;;;;;30.33;15.77;;;-1.60;99.90;;;;;;5104820;28;20036;-61
2022/03/07 06:52:51;;;;;;;25.35;14.13;;;-1.60;99.90;;;;;;5092558;28;20582;-62
2022/03/07 06:55:17;;;;;;;33.47;17.13;;;-1.50;99.90;;;;;;5084182;28;20040;-61
2022/03/07 06:57:43;;;;;;;29.38;16.88;;;-1.40;99.90;;;;;;5083776;28;20041;-61
2022/03/07 07:00:13;;;;;;;32.72;16.63;;;-1.20;99.90;;;;;;5083880;28;20059;-61
2022/03/07 07:02:38;;;;;;;40.72;18.67;;;-1.10;99.90;;;;;;5084029;28;20028;-62
2022/03/07 07:05:05;;;;;;;31.40;15.93;;;-0.90;99.90;;;;;;5100368;28;20055;-61
2022/03/07 07:07:32;;;;;;;29.50;15.32;;;-0.80;99.90;;;;;;5102645;28;20078;-61
2022/03/07 07:09:58;;;;;;;24.65;13.27;;;-0.80;99.90;;;;;;5104270;28;20040;-61
2022/03/07 07:12:24;;;;;;;23.63;14.60;;;-0.80;99.90;;;;;;5104088;28;20044;-60
2022/03/07 07:14:49;;;;;;;27.05;13.10;;;-0.80;99.90;;;;;;5104200;28;20048;-60
2022/03/07 07:17:16;;;;;;;22.58;13.35;;;-0.80;99.90;;;;;;5103372;28;20043;-61
2022/03/07 07:19:42;;;;;;;22.25;12.90;;;-0.80;99.90;;;;;;5104356;28;20079;-61
2022/03/07 07:22:08;;;;;;;28.65;14.65;;;-0.80;99.90;;;;;;5102687;28;20418;-61
2022/03/07 07:24:34;;;;;;;24.00;12.73;;;-0.60;99.90;;;;;;5104233;28;20044;-61
2022/03/07 07:27:00;;;;;;;23.33;11.88;;;-0.60;99.90;;;;;;5103762;28;20055;-61
2022/03/07 07:29:25;;;;;;;28.33;11.70;;;-0.60;99.90;;;;;;5103697;28;20055;-61
2022/03/07 07:31:51;;;;;;;19.20;10.90;;;-0.50;99.90;;;;;;5103847;28;20043;-61
2022/03/07 07:34:18;;;;;;;17.50;10.57;;;-0.40;99.90;;;;;;5099324;28;20066;-60
2022/03/07 07:36:43;;;;;;;25.92;11.20;;;-0.30;99.90;;;;;;5085530;28;20044;-61
2022/03/07 07:39:10;;;;;;;17.42;11.13;;;-0.20;99.90;;;;;;5083293;28;20136;-61
2022/03/07 07:41:36;;;;;;;23.40;9.73;;;-0.10;99.90;;;;;;5083364;28;20064;-61
2022/03/07 07:44:02;;;;;;;20.73;10.82;;;0.10;99.90;;;;;;5098927;28;20072;-61
2022/03/07 07:46:28;;;;;;;19.52;8.80;;;0.20;99.90;;;;;;5091402;28;20044;-61
2022/03/07 07:48:53;;;;;;;12.00;8.68;;;0.30;99.90;;;;;;5091421;28;20143;-61
2022/03/07 07:51:19;;;;;;;14.65;8.38;;;0.40;99.90;;;;;;5090144;28;20045;-61
2022/03/07 07:53:45;;;;;;;15.88;7.80;;;0.50;99.90;;;;;;5103097;28;20139;-61
2022/03/07 07:56:11;;;;;;;20.17;7.28;;;0.60;99.90;;;;;;5102560;28;20052;-60
2022/03/07 07:58:37;;;;;;;12.35;6.10;;;0.80;99.90;;;;;;5106421;28;20078;-61
2022/03/07 08:01:04;;;;;;;16.40;6.80;;;1.00;99.90;;;;;;5108010;28;20048;-61
2022/03/07 08:03:29;;;;;;;10.57;6.70;;;1.10;99.90;;;;;;5108028;28;20067;-61
2022/03/07 08:05:55;;;;;;;17.13;5.95;;;1.20;99.90;;;;;;5103255;28;20040;-60
2022/03/07 08:08:21;;;;;;;7.93;5.03;;;1.40;99.90;;;;;;5087177;28;20096;-60
2022/03/07 08:10:47;;;;;;;15.90;5.35;;;1.50;99.90;;;;;;5087213;28;20036;-60
2022/03/07 08:13:13;;;;;;;9.65;4.20;;;1.70;99.90;;;;;;5087129;28;20060;-61
2022/03/07 08:15:40;;;;;;;14.68;4.68;;;1.90;99.90;;;;;;5086867;28;20037;-61
2022/03/07 08:18:07;;;;;;;6.55;4.95;;;2.10;99.90;;;;;;5098373;28;20094;-61
2022/03/07 08:20:33;;;;;;;16.48;4.43;;;2.30;99.90;;;;;;5106930;28;20036;-61
2022/03/07 08:22:59;;;;;;;6.82;3.25;;;2.40;99.90;;;;;;5106669;28;20051;-61
2022/03/07 08:25:25;;;;;;;7.20;3.80;;;2.60;99.90;;;;;;5106591;28;20036;-61
2022/03/07 08:27:52;;;;;;;10.55;4.03;;;2.70;99.90;;;;;;5106705;28;20036;-61
2022/03/07 08:30:21;;;;;;;8.30;3.40;;;2.90;99.90;;;;;;5106707;28;20066;-61
2022/03/07 08:32:47;;;;;;;8.65;3.05;;;3.00;99.90;;;;;;5107215;28;20055;-61
2022/03/07 08:35:13;;;;;;;6.53;2.63;;;3.20;99.90;;;;;;5095833;28;20499;-61
2022/03/07 08:37:44;;;;;;;6.22;2.70;;;3.40;99.90;;;;;;5086359;28;20052;-61
2022/03/07 08:40:10;;;;;;;5.35;2.42;;;3.60;99.90;;;;;;5085182;28;20511;-61
2022/03/07 08:42:36;;;;;;;6.35;2.20;;;3.80;99.90;;;;;;5106126;28;20087;-61
2022/03/07 08:45:06;;;;;;;6.70;2.40;;;4.10;99.90;;;;;;5105921;28;20100;-61
2022/03/07 08:47:36;;;;;;;4.80;2.03;;;4.20;99.90;;;;;;5112943;28;20040;-61
2022/03/07 08:50:04;;;;;;;7.70;1.90;;;4.40;99.90;;;;;;5096867;28;20048;-61
2022/03/07 08:52:29;;;;;;;;;;;4.60;99.90;;;;;;5107258;28;20046;-61
2022/03/07 08:54:55;;;;;;;5.25;2.00;;;4.70;99.90;;;;;;5107838;28;19951;-61
2022/03/07 08:57:21;;;;;;;6.50;2.35;;;4.80;99.90;;;;;;5099318;28;20074;-62
2022/03/07 08:59:46;;;;;;;4.47;1.98;;;4.90;99.90;;;;;;5101960;28;20063;-62
2022/03/07 09:02:12;;;;;;;7.97;2.05;;;5.00;99.90;;;;;;5106711;28;20042;-62
2022/03/07 09:04:42;;;;;;;9.30;2.83;;;5.10;99.90;;;;;;5110937;28;20039;-61
2022/03/07 09:07:08;;;;;;;5.82;2.08;;;5.20;99.90;;;;;;5109095;28;20104;-62
2022/03/07 09:09:34;;;;;;;7.75;1.75;;;5.30;99.90;;;;;;5105429;28;20524;-61
2022/03/07 09:12:01;;;;;;;7.78;1.90;;;5.40;99.90;;;;;;5107860;28;20097;-62
2022/03/07 09:14:27;;;;;;;5.50;1.60;;;5.50;99.90;;;;;;5101882;28;20065;-62
2022/03/07 09:16:53;;;;;;;5.50;1.90;;;5.50;99.90;;;;;;5104180;28;20083;-61
2022/03/07 09:19:19;;;;;;;4.57;1.70;;;5.60;99.90;;;;;;5103147;28;20048;-61
2022/03/07 09:21:45;;;;;;;8.77;2.20;;;5.70;99.90;;;;;;5094088;28;20044;-61
2022/03/07 09:24:11;;;;;;;7.85;1.65;;;5.70;99.90;;;;;;5096458;28;20103;-61
2022/03/07 09:26:36;;;;;;;3.08;1.70;;;5.90;99.90;;;;;;5105442;28;20079;-61
2022/03/07 09:29:03;;;;;;;5.40;1.80;;;6.00;99.90;;;;;;5103736;28;20044;-62
2022/03/07 09:31:29;;;;;;;6.75;2.30;;;6.10;99.90;;;;;;5097684;28;20064;-61
2022/03/07 09:33:54;;;;;;;8.77;1.40;;;6.10;99.90;;;;;;5107663;28;20039;-61
2022/03/07 09:36:20;;;;;;;5.53;1.80;;;6.10;99.90;;;;;;5092882;28;20045;-60
2022/03/07 09:38:46;;;;;;;7.53;2.45;;;6.10;99.90;;;;;;5101912;28;20047;-60
2022/03/07 09:41:12;;;;;;;10.00;1.50;;;6.20;99.90;;;;;;5109433;28;20048;-60
2022/03/07 09:43:38;;;;;;;6.00;1.60;;;6.30;99.90;;;;;;5103307;28;20048;-64
2022/03/07 09:46:04;;;;;;;5.25;1.52;;;6.30;99.90;;;;;;5100028;28;20044;-63
2022/03/07 09:48:30;;;;;;;11.73;1.90;;;6.40;99.90;;;;;;5104753;28;20127;-63
2022/03/07 09:50:57;;;;;;;8.27;1.95;;;6.50;99.90;;;;;;5103626;28;20064;-61
2022/03/07 09:53:23;;;;;;;8.07;1.67;;;6.60;99.90;;;;;;5098143;28;20891;-65
2022/03/07 09:55:49;;;;;;;6.20;1.55;;;6.60;99.90;;;;;;5099143;28;20039;-61
2022/03/07 09:58:16;;;;;;;6.55;2.13;;;6.70;99.90;;;;;;5100739;28;20040;-63
2022/03/07 10:00:42;;;;;;;6.20;2.03;;;6.70;99.90;;;;;;5114918;28;20048;-65
2022/03/07 10:03:14;;;;;;;3.60;1.30;;;6.70;99.90;;;;;;5105269;28;20044;-70
2022/03/07 10:05:43;;;;;;;11.27;1.98;;;6.50;99.90;;;;;;5104120;28;20047;-67
2022/03/07 10:08:10;;;;;;;10.30;2.00;;;6.40;99.90;;;;;;5099536;28;20047;-65
2022/03/07 10:10:40;;;;;;;6.82;1.58;;;6.40;99.90;;;;;;5096335;28;20072;-68
2022/03/07 10:13:14;;;;;;;4.88;1.77;;;6.70;99.90;;;;;;5092492;28;20082;-64
2022/03/07 10:15:41;;;;;;;6.00;1.20;;;6.70;99.90;;;;;;5098635;28;20119;-64
2022/03/07 10:18:15;;;;;;;8.95;2.90;;;6.30;99.90;;;;;;5101428;28;20054;-62
2022/03/07 10:20:53;;;;;;;7.72;2.33;;;6.20;99.90;;;;;;5097337;28;20036;-64
2022/03/07 10:23:19;;;;;;;7.70;1.67;;;6.00;99.90;;;;;;5100444;28;20040;-64
2022/03/07 10:25:45;;;;;;;5.70;1.75;;;6.00;99.90;;;;;;5099664;28;20039;-64
2022/03/07 10:28:13;;;;;;;11.15;2.50;;;6.10;99.90;;;;;;5098989;28;20047;-63
2022/03/07 10:30:39;;;;;;;4.45;1.75;;;6.20;99.90;;;;;;5103520;28;20036;-62
2022/03/07 10:33:08;;;;;;;9.07;1.40;;;6.30;99.90;;;;;;5102613;28;20040;-61
2022/03/07 10:35:36;;;;;;;8.45;1.63;;;6.50;99.90;;;;;;5086094;28;20123;-64
2022/03/07 10:38:09;;;;;;;6.72;2.40;;;6.40;99.90;;;;;;5099139;28;20040;-65
2022/03/07 10:40:39;;;;;;;6.18;1.90;;;6.60;99.90;;;;;;5097898;28;20048;-64
2022/03/07 10:43:05;;;;;;;9.52;1.55;;;6.60;99.90;;;;;;5102435;28;20598;-65
2022/03/07 10:45:43;;;;;;;4.75;1.50;;;6.60;99.90;;;;;;5103620;28;20047;-66
2022/03/07 10:48:10;;;;;;;3.58;1.63;;;6.30;99.90;;;;;;5094625;28;20131;-65
2022/03/07 10:50:36;;;;;;;4.90;1.70;;;6.40;99.90;;;;;;5092952;28;20032;-61
2022/03/07 10:53:07;;;;;;;4.18;1.90;;;6.70;99.90;;;;;;5097403;28;20055;-65
2022/03/07 10:55:34;;;;;;;2.33;1.48;;;7.10;99.90;;;;;;5097860;28;20096;-65
2022/03/07 10:58:12;;;;;;;6.75;2.33;;;7.40;99.90;;;;;;5103091;28;20085;-68
2022/03/07 11:00:48;;;;;;;5.93;1.90;;;7.40;99.90;;;;;;5097650;28;20047;-67
2022/03/07 11:03:16;;;;;;;6.78;1.95;;;7.20;99.90;;;;;;5102019;28;20278;-63
2022/03/07 11:05:43;;;;;;;4.65;2.10;;;7.10;99.90;;;;;;5104112;28;20040;-64
2022/03/07 11:08:09;;;;;;;4.47;1.38;;;7.20;99.90;;;;;;5097972;28;20566;-69
2022/03/07 11:10:36;;;;;;;5.30;1.90;;;7.40;99.90;;;;;;5102309;28;20097;-66
2022/03/07 11:13:02;;;;;;;5.65;1.80;;;7.50;99.90;;;;;;5094283;28;20028;-74
2022/03/07 11:15:29;;;;;;;3.70;1.52;;;7.70;99.90;;;;;;5096371;28;20139;-66
2022/03/07 11:17:55;;;;;;;4.05;1.88;;;7.40;99.90;;;;;;5094144;28;20049;-67
2022/03/07 11:20:22;;;;;;;7.03;1.67;;;7.10;99.90;;;;;;5099938;28;20103;-64
2022/03/07 11:22:47;;;;;;;5.90;2.47;;;7.10;99.90;;;;;;5101947;28;20090;-66
2022/03/07 11:25:16;;;;;;;6.45;1.77;;;7.30;99.90;;;;;;5102824;28;20036;-70
2022/03/07 11:27:42;;;;;;;5.85;1.70;;;7.80;99.90;;;;;;5096233;28;20076;-72
2022/03/07 11:30:19;;;;;;;6.63;1.40;;;8.10;99.90;;;;;;5100555;28;20036;-72
2022/03/07 11:32:48;;;;;;;2.15;1.20;;;8.30;99.90;;;;;;5107116;28;20040;-71
2022/03/07 11:35:15;;;;;;;4.10;1.73;;;8.40;99.90;;;;;;5095673;28;20036;-70
2022/03/07 11:37:41;;;;;;;3.92;1.40;;;8.40;99.90;;;;;;5102157;28;20040;-66
2022/03/07 11:40:23;;;;;;;3.78;1.45;;;8.10;99.90;;;;;;5101900;28;20048;-62
2022/03/07 11:42:50;;;;;;;3.50;1.38;;;8.00;99.90;;;;;;5102980;28;20464;-63
2022/03/07 11:45:19;;;;;;;4.00;1.42;;;8.30;99.90;;;;;;5108951;28;20116;-63
2022/03/07 11:47:47;;;;;;;4.47;1.42;;;8.00;98.70;;;;;;5104628;28;20043;-63
2022/03/07 11:50:12;;;;;;;;;;;8.50;99.10;;;;;;5107612;28;20085;-63
2022/03/07 11:52:38;;;;;;;3.78;0.95;;;8.60;96.40;;;;;;5106168;28;19924;-64
2022/03/07 11:55:11;;;;;;;3.85;1.67;;;9.20;95.40;;;;;;5100065;28;20050;-63
2022/03/07 11:57:39;;;;;;;2.55;1.25;;;9.10;93.50;;;;;;5097457;28;20071;-63
2022/03/07 12:00:19;;;;;;;2.60;0.90;;;8.80;91.40;;;;;;5104952;28;20055;-65
2022/03/07 12:02:49;;;;;;;2.42;1.00;;;8.40;90.00;;;;;;5097592;28;20044;-65
2022/03/07 12:05:32;;;;;;;4.47;1.40;;;8.80;92.60;;;;;;5087447;28;20044;-64
2022/03/07 12:08:10;;;;;;;3.45;1.27;;;8.80;92.20;;;;;;5086971;28;20091;-65
2022/03/07 12:10:38;;;;;;;2.70;0.80;;;9.10;92.10;;;;;;5086828;28;20083;-66
2022/03/07 12:13:10;;;;;;;3.65;1.10;;;9.50;90.50;;;;;;5086779;28;20052;-65
2022/03/07 12:15:52;;;;;;;4.95;1.45;;;9.00;83.90;;;;;;5086497;28;20045;-65
2022/03/07 12:18:19;;;;;;;3.30;1.17;;;8.70;86.20;;;;;;5086711;28;20048;-64
2022/03/07 12:20:56;;;;;;;2.35;1.10;;;8.90;89.20;;;;;;5086836;28;20404;-64
2022/03/07 12:23:27;;;;;;;2.55;1.20;;;9.70;90.90;;;;;;5086600;28;20049;-64
2022/03/07 12:26:06;;;;;;;6.22;1.10;;;10.80;88.40;;;;;;5086881;28;20045;-64
2022/03/07 12:28:35;;;;;;;3.55;1.23;;;11.70;78.30;;;;;;5096859;28;20048;-64
2022/03/07 12:31:02;;;;;;;2.70;1.02;;;12.50;75.60;;;;;;5101839;28;20050;-64
2022/03/07 12:33:28;;;;;;;1.80;0.88;;;12.20;68.60;;;;;;5103033;28;20044;-64
2022/03/07 12:36:08;;;;;;;2.97;1.30;;;11.30;65.90;;;;;;5088247;28;20083;-64
2022/03/07 12:38:34;;;;;;;2.28;1.10;;;10.90;65.90;;;;;;5101048;28;20309;-64
2022/03/07 12:41:00;;;;;;;1.60;1.03;;;11.30;65.50;;;;;;5089290;28;20052;-62